createdAt,value
2023-04-10T00:00:38.074Z,33.00
2023-04-10T00:03:20.607Z,34.00
2023-04-10T00:05:49.044Z,38.30
2023-04-10T00:08:17.507Z,37.40
2023-04-10T00:10:45.998Z,35.20
2023-04-10T00:13:15.652Z,35.60
2023-04-10T00:15:43.936Z,38.30
2023-04-10T00:18:12.713Z,36.10
2023-04-10T00:20:41.013Z,39.50
2023-04-10T00:23:09.390Z,37.70
2023-04-10T00:25:37.670Z,35.90
2023-04-10T00:28:05.912Z,39.90
2023-04-10T00:30:34.204Z,37.80
2023-04-10T00:33:02.481Z,40.60
2023-04-10T00:35:30.865Z,40.90
2023-04-10T00:37:59.561Z,40.90
2023-04-10T00:40:30.390Z,43.60
2023-04-10T00:42:59.023Z,41.80
2023-04-10T00:45:27.778Z,42.10
2023-04-10T00:47:56.768Z,46.00
2023-04-10T00:50:25.185Z,43.80
2023-04-10T00:52:53.479Z,47.30
2023-04-10T00:55:21.930Z,45.10
2023-04-10T00:57:50.632Z,47.10
2023-04-10T01:00:19.211Z,45.20
2023-04-10T01:02:48.092Z,43.80
2023-04-10T01:05:16.638Z,44.40
2023-04-10T01:07:59.824Z,43.90
2023-04-10T01:10:40.657Z,44.20
2023-04-10T01:13:18.121Z,44.30
2023-04-10T01:16:00.424Z,43.70
2023-04-10T01:18:49.099Z,46.00
2023-04-10T01:21:17.885Z,45.40
2023-04-10T01:24:23.160Z,44.20
2023-04-10T01:27:03.507Z,43.30
2023-04-10T01:29:36.762Z,44.70
2023-04-10T01:32:20.612Z,43.10
2023-04-10T01:34:55.563Z,42.40
2023-04-10T01:37:27.956Z,44.80
2023-04-10T01:40:26.700Z,44.60
2023-04-10T01:42:56.992Z,42.80
2023-04-10T01:45:33.757Z,43.90
2023-04-10T01:48:02.263Z,44.40
2023-04-10T01:50:31.937Z,43.60
2023-04-10T01:53:02.244Z,44.20
2023-04-10T01:55:32.273Z,44.90
2023-04-10T01:58:07.624Z,44.70
2023-04-10T02:00:41.872Z,43.50
2023-04-10T02:03:11.339Z,44.10
2023-04-10T02:05:55.089Z,46.30
2023-04-10T02:08:39.837Z,43.50
2023-04-10T02:11:38.597Z,44.20
2023-04-10T02:14:11.234Z,44.10
2023-04-10T02:16:40.899Z,43.00
2023-04-10T02:19:11.105Z,44.00
2023-04-10T02:21:40.519Z,45.30
2023-04-10T02:24:08.857Z,43.30
2023-04-10T02:26:53.598Z,45.50
2023-04-10T02:29:21.788Z,46.10
2023-04-10T02:31:50.868Z,45.40
2023-04-10T02:34:20.797Z,44.10
2023-04-10T02:36:49.112Z,44.80
2023-04-10T02:39:17.462Z,42.90
2023-04-10T02:41:51.769Z,44.20
2023-04-10T02:44:20.609Z,46.10
2023-04-10T02:46:48.879Z,46.60
2023-04-10T02:49:17.239Z,47.90
2023-04-10T02:51:45.751Z,45.50
2023-04-10T02:54:13.984Z,46.70
2023-04-10T02:56:42.427Z,45.90
2023-04-10T02:59:10.697Z,49.60
2023-04-10T03:01:39.629Z,47.00
2023-04-10T03:04:08.310Z,49.30
2023-04-10T03:06:39.872Z,48.10
2023-04-10T03:09:08.512Z,48.10
2023-04-10T03:11:36.974Z,50.00
2023-04-10T03:14:05.440Z,49.10
2023-04-10T03:16:33.732Z,49.80
2023-04-10T03:19:04.737Z,46.70
2023-04-10T03:21:33.076Z,51.30
2023-04-10T03:24:01.569Z,49.80
2023-04-10T03:26:29.982Z,48.50
2023-04-10T03:28:58.602Z,49.80
2023-04-10T03:31:27.659Z,50.20
2023-04-10T03:33:58.359Z,50.10
2023-04-10T03:36:27.579Z,49.10
2023-04-10T03:38:55.839Z,50.50
2023-04-10T03:41:25.658Z,50.00
2023-04-10T03:43:54.545Z,52.80
2023-04-10T03:46:23.360Z,52.10
2023-04-10T03:48:54.178Z,52.30
2023-04-10T03:51:24.743Z,53.80
2023-04-10T03:53:53.624Z,54.20
2023-04-10T03:56:22.780Z,55.00
2023-04-10T03:58:51.195Z,52.60
2023-04-10T04:01:20.997Z,53.40
2023-04-10T04:03:57.800Z,55.10
2023-04-10T04:06:46.826Z,55.70
2023-04-10T04:09:33.642Z,55.50
2023-04-10T04:12:18.450Z,54.20
2023-04-10T04:15:05.458Z,53.40
2023-04-10T04:17:46.296Z,53.30
2023-04-10T04:20:36.970Z,53.00
2023-04-10T04:23:15.790Z,57.40
2023-04-10T04:26:04.532Z,59.50
2023-04-10T04:29:08.053Z,56.00
2023-04-10T04:31:59.066Z,57.30
2023-04-10T04:34:42.866Z,57.90
2023-04-10T04:37:23.459Z,54.90
2023-04-10T04:40:18.510Z,55.20
2023-04-10T04:43:09.886Z,56.80
2023-04-10T04:45:58.556Z,56.50
2023-04-10T04:48:52.915Z,57.40
2023-04-10T04:51:35.969Z,57.10
2023-04-10T04:54:07.883Z,56.70
2023-04-10T04:56:48.923Z,58.10
2023-04-10T04:59:28.631Z,60.00
2023-04-10T05:02:22.665Z,55.70
2023-04-10T05:05:17.250Z,60.00
2023-04-10T05:07:58.652Z,60.40
2023-04-10T05:10:53.146Z,60.70
2023-04-10T05:13:39.170Z,56.30
2023-04-10T05:16:14.898Z,57.20
2023-04-10T05:19:09.163Z,56.80
2023-04-10T05:22:00.564Z,58.40
2023-04-10T05:24:51.452Z,57.80
2023-04-10T05:27:45.554Z,60.30
2023-04-10T05:30:42.862Z,55.80
2023-04-10T05:33:34.136Z,58.50
2023-04-10T05:36:25.743Z,55.40
2023-04-10T05:39:00.295Z,55.20
2023-04-10T05:41:41.317Z,55.90
2023-04-10T05:44:27.754Z,58.00
2023-04-10T05:47:04.199Z,57.20
2023-04-10T05:49:55.368Z,58.60
2023-04-10T05:52:42.177Z,55.60
2023-04-10T05:55:31.349Z,54.80
2023-04-10T05:58:21.347Z,54.30
2023-04-10T06:01:04.399Z,57.40
2023-04-10T06:03:42.331Z,57.80
2023-04-10T06:06:10.999Z,56.90
2023-04-10T06:08:39.531Z,53.70
2023-04-10T06:11:07.836Z,57.30
2023-04-10T06:13:36.337Z,57.30
2023-04-10T06:16:05.519Z,59.90
2023-04-10T06:18:34.706Z,57.90
2023-04-10T06:21:03.058Z,60.30
2023-04-10T06:23:31.431Z,56.90
2023-04-10T06:26:01.134Z,60.20
2023-04-10T06:28:29.592Z,60.60
2023-04-10T06:31:03.660Z,58.40
2023-04-10T06:33:37.644Z,57.30
2023-04-10T06:36:08.608Z,66.80
2023-04-10T06:38:41.717Z,60.60
2023-04-10T06:41:10.533Z,62.60
2023-04-10T06:43:39.885Z,60.10
2023-04-10T06:46:08.421Z,56.20
2023-04-10T06:48:36.822Z,52.80
2023-04-10T06:51:05.395Z,56.90
2023-04-10T06:53:33.731Z,58.80
2023-04-10T06:56:03.649Z,58.20
2023-04-10T06:58:32.285Z,56.20
2023-04-10T07:01:04.516Z,59.60
2023-04-10T07:03:33.952Z,58.00
2023-04-10T07:06:03.402Z,55.90
2023-04-10T07:08:31.801Z,52.30
2023-04-10T07:11:00.057Z,52.50
2023-04-10T07:13:28.466Z,51.40
2023-04-10T07:15:56.792Z,53.10
2023-04-10T07:18:25.275Z,49.80
2023-04-10T07:20:54.175Z,54.30
2023-04-10T07:23:22.733Z,54.10
2023-04-10T07:25:52.148Z,47.20
2023-04-10T07:28:20.384Z,49.90
2023-04-10T07:30:48.571Z,50.10
2023-04-10T07:33:17.069Z,51.40
2023-04-10T07:35:45.618Z,50.60
2023-04-10T07:38:13.913Z,51.30
2023-04-10T07:40:42.215Z,50.20
2023-04-10T07:43:10.535Z,51.40
2023-04-10T07:45:38.845Z,48.80
2023-04-10T07:48:07.355Z,54.00
2023-04-10T07:50:36.402Z,50.70
2023-04-10T07:53:07.966Z,47.70
2023-04-10T07:55:40.485Z,51.50
2023-04-10T07:58:09.252Z,49.20
2023-04-10T08:00:37.678Z,47.70
2023-04-10T08:03:06.825Z,52.80
2023-04-10T08:05:35.344Z,49.80
2023-04-10T08:08:03.782Z,48.30
2023-04-10T08:10:32.303Z,50.90
2023-04-10T08:13:00.897Z,48.60
2023-04-10T08:15:29.281Z,48.80
2023-04-10T08:17:57.630Z,48.70
2023-04-10T08:20:25.890Z,49.60
2023-04-10T08:22:56.189Z,52.10
2023-04-10T08:25:27.101Z,47.70
2023-04-10T08:27:55.491Z,48.50
2023-04-10T08:30:23.924Z,49.50
2023-04-10T08:32:52.210Z,50.70
2023-04-10T08:35:20.621Z,49.80
2023-04-10T08:37:53.555Z,48.90
2023-04-10T08:40:30.790Z,44.70
2023-04-10T08:42:59.008Z,54.40
2023-04-10T08:45:27.220Z,54.50
2023-04-10T08:47:58.031Z,49.40
2023-04-10T08:50:27.561Z,50.40
2023-04-10T08:53:00.158Z,49.00
2023-04-10T08:55:28.506Z,49.50
2023-04-10T08:58:01.026Z,47.30
2023-04-10T09:00:31.606Z,47.40
2023-04-10T09:03:00.432Z,47.90
2023-04-10T09:05:29.762Z,46.50
2023-04-10T09:07:58.109Z,48.10
2023-04-10T09:10:26.553Z,52.00
2023-04-10T09:12:54.823Z,45.10
2023-04-10T09:15:23.220Z,44.80
2023-04-10T09:17:55.514Z,47.80
2023-04-10T09:20:25.313Z,47.00
2023-04-10T09:22:53.857Z,45.50
2023-04-10T09:25:30.221Z,44.40
2023-04-10T09:28:09.826Z,45.40
2023-04-10T09:30:42.882Z,43.70
2023-04-10T09:33:25.207Z,42.70
2023-04-10T09:35:54.763Z,43.40
2023-04-10T09:38:23.931Z,43.70
2023-04-10T09:40:53.797Z,44.60
2023-04-10T09:43:26.418Z,46.70
2023-04-10T09:45:57.144Z,44.70
2023-04-10T09:48:26.854Z,40.90
2023-04-10T09:50:55.180Z,41.10
2023-04-10T09:53:23.417Z,44.40
2023-04-10T09:55:51.769Z,39.80
2023-04-10T09:58:20.362Z,42.00
2023-04-10T10:00:49.817Z,42.70
2023-04-10T10:03:21.388Z,43.20
2023-04-10T10:05:51.475Z,42.70
2023-04-10T10:08:20.728Z,46.50
2023-04-10T10:10:56.532Z,42.20
2023-04-10T10:13:36.088Z,42.90
2023-04-10T10:16:39.867Z,41.40
2023-04-10T10:19:13.891Z,41.50
2023-04-10T10:21:45.418Z,39.60
2023-04-10T10:24:14.756Z,41.10
2023-04-10T10:26:44.196Z,40.50
2023-04-10T10:29:15.086Z,40.30
2023-04-10T10:31:44.058Z,41.20
2023-04-10T10:34:12.378Z,34.70
2023-04-10T10:36:40.945Z,35.90
2023-04-10T10:39:31.957Z,38.20
2023-04-10T10:42:02.961Z,37.70
2023-04-10T10:44:51.072Z,40.40
2023-04-10T10:47:29.182Z,39.70
2023-04-10T10:49:59.523Z,39.60
2023-04-10T10:52:47.295Z,37.00
2023-04-10T10:55:28.228Z,37.80
2023-04-10T10:57:58.611Z,36.10
2023-04-10T11:00:52.507Z,37.50
2023-04-10T11:03:21.004Z,38.40
2023-04-10T11:05:55.160Z,40.10
2023-04-10T11:08:46.002Z,39.70
2023-04-10T11:11:23.584Z,44.20
2023-04-10T11:14:01.137Z,40.60
2023-04-10T11:16:36.116Z,43.40
2023-04-10T11:19:14.130Z,41.80
2023-04-10T11:22:15.682Z,42.20
2023-04-10T11:24:57.575Z,37.60
2023-04-10T11:27:45.044Z,38.40
2023-04-10T11:30:35.969Z,37.60
2023-04-10T11:33:05.972Z,38.80
2023-04-10T11:35:34.594Z,40.60
2023-04-10T11:38:17.527Z,38.90
2023-04-10T11:41:01.762Z,36.60
2023-04-10T11:43:32.232Z,40.50
2023-04-10T11:46:02.717Z,37.40
2023-04-10T11:48:32.273Z,38.30
2023-04-10T11:51:07.614Z,37.30
2023-04-10T11:53:36.130Z,37.40
2023-04-10T11:56:04.713Z,37.60
2023-04-10T11:58:33.212Z,39.40
2023-04-10T12:01:02.894Z,38.30
2023-04-10T12:03:42.738Z,37.60
2023-04-10T12:06:14.373Z,36.30
2023-04-10T12:08:49.353Z,40.00
2023-04-10T12:11:20.563Z,41.20
2023-04-10T12:13:53.194Z,40.40
2023-04-10T12:16:22.509Z,39.70
2023-04-10T12:18:52.737Z,39.40
2023-04-10T12:21:21.843Z,40.70
2023-04-10T12:23:50.221Z,38.20
2023-04-10T12:26:19.042Z,37.30
2023-04-10T12:28:53.641Z,40.30
2023-04-10T12:31:33.518Z,38.50
2023-04-10T12:34:05.326Z,39.70
2023-04-10T12:36:35.219Z,39.70
2023-04-10T12:39:04.984Z,38.90
2023-04-10T12:41:34.496Z,40.40
2023-04-10T12:44:13.817Z,37.50
2023-04-10T12:46:43.339Z,37.80
2023-04-10T12:49:20.900Z,37.90
2023-04-10T12:51:51.600Z,36.90
2023-04-10T12:54:37.083Z,40.10
2023-04-10T12:57:06.221Z,41.70
2023-04-10T12:59:34.500Z,43.30
2023-04-10T13:02:02.866Z,40.80
2023-04-10T13:04:32.366Z,46.50
2023-04-10T13:07:01.304Z,45.90
2023-04-10T13:09:29.621Z,44.60
2023-04-10T13:11:58.456Z,44.80
2023-04-10T13:14:27.229Z,48.50
2023-04-10T13:16:55.452Z,48.20
2023-04-10T13:19:23.744Z,47.80
2023-04-10T13:21:52.044Z,46.00
2023-04-10T13:24:20.436Z,44.00
2023-04-10T13:26:48.641Z,43.40
2023-04-10T13:29:17.130Z,43.40
2023-04-10T13:31:45.443Z,44.90
2023-04-10T13:34:13.790Z,46.00
2023-04-10T13:36:42.485Z,46.70
2023-04-10T13:39:11.126Z,46.30
2023-04-10T13:41:39.469Z,43.50
2023-04-10T13:44:07.766Z,45.70
2023-04-10T13:46:36.080Z,44.70
2023-04-10T13:49:04.503Z,47.80
2023-04-10T13:51:32.904Z,46.10
2023-04-10T13:54:02.924Z,47.40
2023-04-10T13:56:31.157Z,46.50
2023-04-10T13:58:59.431Z,46.90
2023-04-10T14:01:27.714Z,44.90
2023-04-10T14:03:56.606Z,47.70
2023-04-10T14:06:25.352Z,44.60
2023-04-10T14:08:54.009Z,47.40
2023-04-10T14:11:23.181Z,44.00
2023-04-10T14:13:51.437Z,40.70
2023-04-10T14:16:19.825Z,41.40
2023-04-10T14:18:48.275Z,42.10
2023-04-10T14:21:17.385Z,37.70
2023-04-10T14:23:47.767Z,38.00
2023-04-10T14:26:16.109Z,37.10
2023-04-10T14:28:44.366Z,37.00
2023-04-10T14:31:12.842Z,40.30
2023-04-10T14:33:41.119Z,45.10
2023-04-10T14:36:10.057Z,46.00
2023-04-10T14:38:38.379Z,44.70
2023-04-10T14:41:06.972Z,46.70
2023-04-10T14:43:35.365Z,41.30
2023-04-10T14:46:03.914Z,38.00
2023-04-10T14:48:32.323Z,22.70
2023-04-10T14:51:01.441Z,22.00
2023-04-10T14:53:29.730Z,19.60
2023-04-10T14:55:58.002Z,16.90
2023-04-10T14:58:26.360Z,20.40
2023-04-10T15:00:54.646Z,19.80
2023-04-10T15:03:25.193Z,18.10
2023-04-10T15:06:00.611Z,16.60
2023-04-10T15:08:29.029Z,15.10
2023-04-10T15:10:57.409Z,15.10
2023-04-10T15:13:25.895Z,16.00
2023-04-10T15:15:54.359Z,15.30
2023-04-10T15:18:22.700Z,15.90
2023-04-10T15:20:51.070Z,17.80
2023-04-10T15:23:19.424Z,17.30
2023-04-10T15:25:47.818Z,18.20
2023-04-10T15:28:16.060Z,17.30
2023-04-10T15:30:45.116Z,17.30
2023-04-10T15:33:13.447Z,19.30
2023-04-10T15:35:41.756Z,29.20
2023-04-10T15:38:11.873Z,32.10
2023-04-10T15:40:40.229Z,25.10
2023-04-10T15:43:08.634Z,28.70
2023-04-10T15:45:37.529Z,33.00
2023-04-10T15:48:06.380Z,32.60
2023-04-10T15:50:37.032Z,33.10
2023-04-10T15:53:05.362Z,33.80
2023-04-10T15:55:33.631Z,32.90
2023-04-10T15:58:02.628Z,34.80
2023-04-10T16:00:31.162Z,37.40
2023-04-10T16:02:59.619Z,37.90
2023-04-10T16:05:28.008Z,36.10
2023-04-10T16:07:56.404Z,38.50
2023-04-10T16:10:24.683Z,37.50
2023-04-10T16:12:52.937Z,40.40
2023-04-10T16:15:21.370Z,39.00
2023-04-10T16:17:49.721Z,39.00
2023-04-10T16:20:18.870Z,36.20
2023-04-10T16:22:47.173Z,36.80
2023-04-10T16:25:15.445Z,39.70
2023-04-10T16:27:44.261Z,35.40
2023-04-10T16:30:12.999Z,30.20
2023-04-10T16:32:41.239Z,29.30
2023-04-10T16:35:09.705Z,21.20
2023-04-10T16:37:38.035Z,16.80
2023-04-10T16:40:06.908Z,16.90
2023-04-10T16:42:35.319Z,14.10
2023-04-10T16:45:04.014Z,15.00
2023-04-10T16:47:32.353Z,13.70
2023-04-10T16:50:00.844Z,18.30
2023-04-10T16:52:29.435Z,17.20
2023-04-10T16:54:57.803Z,15.00
2023-04-10T16:57:26.632Z,15.10
2023-04-10T17:00:00.841Z,15.30
2023-04-10T17:02:30.363Z,19.40
2023-04-10T17:04:58.806Z,17.30
2023-04-10T17:07:27.124Z,18.80
2023-04-10T17:09:55.302Z,16.20
2023-04-10T17:12:23.690Z,16.80
2023-04-10T17:14:52.014Z,15.10
2023-04-10T17:17:20.450Z,16.20
2023-04-10T17:19:49.308Z,14.30
2023-04-10T17:22:17.559Z,15.10
2023-04-10T17:24:46.243Z,16.60
2023-04-10T17:27:14.610Z,14.80
2023-04-10T17:29:42.922Z,12.50
2023-04-10T17:32:11.334Z,11.40
2023-04-10T17:34:39.588Z,13.10
2023-04-10T17:37:07.935Z,13.80
2023-04-10T17:39:36.255Z,16.50
2023-04-10T17:42:04.593Z,15.30
2023-04-10T17:44:32.959Z,16.10
2023-04-10T17:47:01.512Z,16.20
2023-04-10T17:49:30.849Z,15.50
2023-04-10T17:52:00.138Z,17.00
2023-04-10T17:54:28.345Z,18.00
2023-04-10T17:56:56.843Z,20.90
2023-04-10T17:59:25.212Z,19.90
2023-04-10T18:01:53.644Z,20.20
2023-04-10T18:04:22.259Z,20.50
2023-04-10T18:06:50.549Z,19.00
2023-04-10T18:09:18.732Z,26.30
2023-04-10T18:11:48.572Z,28.30
2023-04-10T18:14:17.113Z,20.70
2023-04-10T18:16:45.373Z,16.80
2023-04-10T18:19:13.801Z,16.70
2023-04-10T18:21:42.107Z,16.50
2023-04-10T18:24:14.056Z,18.20
2023-04-10T18:26:43.334Z,17.20
2023-04-10T18:29:11.611Z,17.50
2023-04-10T18:31:39.848Z,18.50
2023-04-10T18:34:08.785Z,15.80
2023-04-10T18:36:37.332Z,15.20
2023-04-10T18:39:05.616Z,12.60
2023-04-10T18:41:33.991Z,13.60
2023-04-10T18:44:05.418Z,14.00
2023-04-10T18:46:34.616Z,14.30
2023-04-10T18:49:03.682Z,13.40
2023-04-10T18:51:35.275Z,15.00
2023-04-10T18:54:04.766Z,14.90
2023-04-10T18:56:35.615Z,14.10
2023-04-10T18:59:04.610Z,13.80
2023-04-10T19:01:33.934Z,13.80
2023-04-10T19:04:02.579Z,14.30
2023-04-10T19:06:32.484Z,16.50
2023-04-10T19:09:00.865Z,15.70
2023-04-10T19:11:29.238Z,17.40
2023-04-10T19:13:57.825Z,32.40
2023-04-10T19:16:26.383Z,32.40
2023-04-10T19:18:55.285Z,21.50
2023-04-10T19:21:23.878Z,18.60
2023-04-10T19:23:52.124Z,15.70
2023-04-10T19:26:20.728Z,17.20
2023-04-10T19:28:49.038Z,16.20
2023-04-10T19:31:17.427Z,16.40
2023-04-10T19:33:45.766Z,17.10
2023-04-10T19:36:16.498Z,16.20
2023-04-10T19:38:48.637Z,16.20
2023-04-10T19:41:18.167Z,15.30
2023-04-10T19:43:47.275Z,18.40
2023-04-10T19:46:20.375Z,19.00
2023-04-10T19:48:49.349Z,20.00
2023-04-10T19:51:18.014Z,18.90
2023-04-10T19:53:46.476Z,26.20
2023-04-10T19:56:16.582Z,21.60
2023-04-10T19:58:47.012Z,17.00
2023-04-10T20:01:15.635Z,17.00
2023-04-10T20:03:44.162Z,15.30
2023-04-10T20:06:12.793Z,17.00
2023-04-10T20:08:41.248Z,15.70
2023-04-10T20:11:09.754Z,16.90
2023-04-10T20:13:40.084Z,17.00
2023-04-10T20:16:11.020Z,17.70
2023-04-10T20:18:39.493Z,18.60
2023-04-10T20:21:08.351Z,19.60
2023-04-10T20:23:38.134Z,20.60
2023-04-10T20:26:06.839Z,19.90
2023-04-10T20:28:37.387Z,17.00
2023-04-10T20:31:08.672Z,16.90
2023-04-10T20:33:37.497Z,18.30
2023-04-10T20:36:06.194Z,32.20
2023-04-10T20:38:34.447Z,26.10
2023-04-10T20:41:03.314Z,22.50
2023-04-10T20:43:32.438Z,17.80
2023-04-10T20:46:09.000Z,18.20
2023-04-10T20:48:39.717Z,17.10
2023-04-10T20:51:09.425Z,16.10
2023-04-10T20:53:37.823Z,19.60
2023-04-10T20:56:06.558Z,19.10
2023-04-10T20:58:34.939Z,15.50
2023-04-10T21:01:03.475Z,14.40
2023-04-10T21:03:32.134Z,14.00
2023-04-10T21:06:04.186Z,13.00
2023-04-10T21:08:32.561Z,14.40
2023-04-10T21:11:00.882Z,14.70
2023-04-10T21:13:29.293Z,14.20
2023-04-10T21:15:57.579Z,14.90
2023-04-10T21:18:25.844Z,15.00
2023-04-10T21:20:54.046Z,14.50
2023-04-10T21:23:22.333Z,14.70
2023-04-10T21:25:54.321Z,15.30
2023-04-10T21:28:22.799Z,16.80
2023-04-10T21:30:51.118Z,16.10
2023-04-10T21:33:19.355Z,13.00
2023-04-10T21:35:47.921Z,12.10
2023-04-10T21:38:16.235Z,11.10
2023-04-10T21:40:54.586Z,12.90
2023-04-10T21:43:23.085Z,16.00
2023-04-10T21:45:51.456Z,16.80
2023-04-10T21:48:20.926Z,14.60
2023-04-10T21:50:50.227Z,11.40
2023-04-10T21:53:19.324Z,14.30
2023-04-10T21:55:47.568Z,26.30
2023-04-10T21:58:16.041Z,28.40
2023-04-10T22:00:47.096Z,26.10
2023-04-10T22:03:16.310Z,25.90
2023-04-10T22:05:44.804Z,26.40
2023-04-10T22:08:13.918Z,27.40
2023-04-10T22:10:44.964Z,23.10
2023-04-10T22:13:27.307Z,21.60
2023-04-10T22:15:59.456Z,18.90
2023-04-10T22:18:27.907Z,19.00
2023-04-10T22:20:56.322Z,18.70
2023-04-10T22:23:24.631Z,18.30
2023-04-10T22:25:52.788Z,17.70
2023-04-10T22:28:21.037Z,16.20
2023-04-10T22:30:49.440Z,18.70
2023-04-10T22:33:17.634Z,17.50
2023-04-10T22:35:46.137Z,17.50
2023-04-10T22:38:14.624Z,16.00
2023-04-10T22:40:42.895Z,15.20
2023-04-10T22:43:11.317Z,16.30
2023-04-10T22:45:41.236Z,15.30
2023-04-10T22:48:09.504Z,15.80
2023-04-10T22:50:38.057Z,15.80
2023-04-10T22:53:06.380Z,13.10
2023-04-10T22:55:36.972Z,15.10
2023-04-10T22:58:05.858Z,14.70
2023-04-10T23:00:34.666Z,14.50
2023-04-10T23:03:03.179Z,14.10
2023-04-10T23:05:33.068Z,14.30
2023-04-10T23:08:01.430Z,14.70
2023-04-10T23:10:29.796Z,14.20
2023-04-10T23:12:58.063Z,13.00
2023-04-10T23:15:26.425Z,13.60
2023-04-10T23:17:55.062Z,13.60
2023-04-10T23:20:24.705Z,13.80
2023-04-10T23:22:55.957Z,15.50
2023-04-10T23:25:24.409Z,16.20
2023-04-10T23:27:52.802Z,16.00
2023-04-10T23:30:21.032Z,16.20
2023-04-10T23:32:49.283Z,15.00
2023-04-10T23:35:17.817Z,16.20
2023-04-10T23:37:46.236Z,16.70
2023-04-10T23:40:14.493Z,16.50
2023-04-10T23:42:42.762Z,16.80
2023-04-10T23:45:11.720Z,16.00
2023-04-10T23:47:40.238Z,15.30
2023-04-10T23:50:09.094Z,16.40
2023-04-10T23:52:37.381Z,15.00
2023-04-10T23:55:06.472Z,14.80
2023-04-10T23:57:34.841Z,14.40
